sensor_id;sensor_type;location;lat;lon;timestamp;P1;durP1;ratioP1;P2;durP2;ratioP2
37349;SDS011;23231;52.358;4.926;2023-09-08T00:01:07;9.85;;;7.75;;
37349;SDS011;23231;52.358;4.926;2023-09-08T00:06:07;8.65;;;6.82;;
37349;SDS011;23231;52.358;4.926;2023-09-08T00:11:07;10.73;;;8.32;;
37349;SDS011;23231;52.358;4.926;2023-09-08T00:16:08;11.73;;;8.25;;
37349;SDS011;23231;52.358;4.926;2023-09-08T00:21:10;11.23;;;8.27;;
37349;SDS011;23231;52.358;4.926;2023-09-08T00:26:10;10.52;;;8.15;;
37349;SDS011;23231;52.358;4.926;2023-09-08T00:31:10;11.80;;;8.23;;
37349;SDS011;23231;52.358;4.926;2023-09-08T00:36:11;9.02;;;7.22;;
37349;SDS011;23231;52.358;4.926;2023-09-08T00:41:11;10.05;;;8.25;;
37349;SDS011;23231;52.358;4.926;2023-09-08T00:46:12;11.60;;;9.23;;
37349;SDS011;23231;52.358;4.926;2023-09-08T00:51:12;11.32;;;9.30;;
37349;SDS011;23231;52.358;4.926;2023-09-08T00:56:13;13.15;;;9.77;;
37349;SDS011;23231;52.358;4.926;2023-09-08T01:01:13;12.48;;;9.15;;
37349;SDS011;23231;52.358;4.926;2023-09-08T01:06:14;12.18;;;8.90;;
37349;SDS011;23231;52.358;4.926;2023-09-08T01:11:14;13.05;;;9.13;;
37349;SDS011;23231;52.358;4.926;2023-09-08T01:16:15;12.85;;;8.20;;
37349;SDS011;23231;52.358;4.926;2023-09-08T01:26:35;11.90;;;8.98;;
37349;SDS011;23231;52.358;4.926;2023-09-08T01:31:37;12.52;;;9.75;;
37349;SDS011;23231;52.358;4.926;2023-09-08T01:36:38;15.57;;;10.00;;
37349;SDS011;23231;52.358;4.926;2023-09-08T01:41:38;15.43;;;10.40;;
37349;SDS011;23231;52.358;4.926;2023-09-08T01:46:38;15.05;;;10.40;;
37349;SDS011;23231;52.358;4.926;2023-09-08T01:51:41;15.48;;;11.30;;
37349;SDS011;23231;52.358;4.926;2023-09-08T01:56:41;14.98;;;11.70;;
37349;SDS011;23231;52.358;4.926;2023-09-08T02:01:41;17.27;;;10.95;;
37349;SDS011;23231;52.358;4.926;2023-09-08T02:06:42;14.45;;;11.35;;
37349;SDS011;23231;52.358;4.926;2023-09-08T02:11:42;13.38;;;10.07;;
37349;SDS011;23231;52.358;4.926;2023-09-08T02:16:43;16.45;;;11.23;;
37349;SDS011;23231;52.358;4.926;2023-09-08T02:21:44;16.15;;;12.35;;
37349;SDS011;23231;52.358;4.926;2023-09-08T02:26:45;14.98;;;10.63;;
37349;SDS011;23231;52.358;4.926;2023-09-08T02:31:45;14.52;;;10.57;;
37349;SDS011;23231;52.358;4.926;2023-09-08T02:36:46;17.52;;;11.98;;
37349;SDS011;23231;52.358;4.926;2023-09-08T02:41:47;16.58;;;11.85;;
37349;SDS011;23231;52.358;4.926;2023-09-08T02:46:48;16.92;;;11.95;;
37349;SDS011;23231;52.358;4.926;2023-09-08T02:51:48;14.45;;;11.55;;
37349;SDS011;23231;52.358;4.926;2023-09-08T02:56:48;15.10;;;11.55;;
37349;SDS011;23231;52.358;4.926;2023-09-08T03:01:49;14.50;;;10.80;;
37349;SDS011;23231;52.358;4.926;2023-09-08T03:06:49;16.60;;;12.07;;
37349;SDS011;23231;52.358;4.926;2023-09-08T03:11:50;16.60;;;12.18;;
37349;SDS011;23231;52.358;4.926;2023-09-08T03:16:50;13.60;;;10.38;;
37349;SDS011;23231;52.358;4.926;2023-09-08T03:21:50;14.63;;;11.27;;
37349;SDS011;23231;52.358;4.926;2023-09-08T03:26:51;17.30;;;11.30;;
37349;SDS011;23231;52.358;4.926;2023-09-08T03:31:51;14.02;;;11.27;;
37349;SDS011;23231;52.358;4.926;2023-09-08T03:36:53;18.73;;;12.70;;
37349;SDS011;23231;52.358;4.926;2023-09-08T03:41:54;17.65;;;12.45;;
37349;SDS011;23231;52.358;4.926;2023-09-08T03:46:54;14.90;;;11.23;;
37349;SDS011;23231;52.358;4.926;2023-09-08T03:51:54;15.85;;;11.07;;
37349;SDS011;23231;52.358;4.926;2023-09-08T03:56:55;13.60;;;11.02;;
37349;SDS011;23231;52.358;4.926;2023-09-08T04:01:55;16.25;;;12.70;;
37349;SDS011;23231;52.358;4.926;2023-09-08T04:06:57;18.17;;;13.05;;
37349;SDS011;23231;52.358;4.926;2023-09-08T04:11:57;18.23;;;13.90;;
37349;SDS011;23231;52.358;4.926;2023-09-08T04:16:58;15.07;;;11.65;;
37349;SDS011;23231;52.358;4.926;2023-09-08T04:21:58;16.52;;;13.02;;
37349;SDS011;23231;52.358;4.926;2023-09-08T04:26:58;19.38;;;14.00;;
37349;SDS011;23231;52.358;4.926;2023-09-08T04:31:59;17.30;;;13.25;;
37349;SDS011;23231;52.358;4.926;2023-09-08T04:36:59;17.98;;;13.32;;
37349;SDS011;23231;52.358;4.926;2023-09-08T04:42:00;19.38;;;13.90;;
37349;SDS011;23231;52.358;4.926;2023-09-08T04:47:01;19.35;;;13.68;;
37349;SDS011;23231;52.358;4.926;2023-09-08T04:52:01;18.83;;;14.30;;
37349;SDS011;23231;52.358;4.926;2023-09-08T04:57:02;21.98;;;15.57;;
37349;SDS011;23231;52.358;4.926;2023-09-08T05:02:02;19.48;;;14.65;;
37349;SDS011;23231;52.358;4.926;2023-09-08T05:07:03;21.35;;;15.50;;
37349;SDS011;23231;52.358;4.926;2023-09-08T05:12:03;17.95;;;13.45;;
37349;SDS011;23231;52.358;4.926;2023-09-08T05:17:04;19.17;;;14.43;;
37349;SDS011;23231;52.358;4.926;2023-09-08T05:22:05;19.45;;;14.50;;
37349;SDS011;23231;52.358;4.926;2023-09-08T05:27:07;21.88;;;14.82;;
37349;SDS011;23231;52.358;4.926;2023-09-08T05:32:07;18.70;;;14.30;;
37349;SDS011;23231;52.358;4.926;2023-09-08T05:37:08;21.85;;;15.45;;
37349;SDS011;23231;52.358;4.926;2023-09-08T05:42:08;20.95;;;14.60;;
37349;SDS011;23231;52.358;4.926;2023-09-08T05:47:09;23.73;;;15.60;;
37349;SDS011;23231;52.358;4.926;2023-09-08T05:52:09;21.52;;;15.80;;
37349;SDS011;23231;52.358;4.926;2023-09-08T05:57:10;21.05;;;15.18;;
37349;SDS011;23231;52.358;4.926;2023-09-08T06:02:10;19.02;;;15.25;;
37349;SDS011;23231;52.358;4.926;2023-09-08T06:07:10;17.85;;;14.68;;
37349;SDS011;23231;52.358;4.926;2023-09-08T06:12:11;19.90;;;15.43;;
37349;SDS011;23231;52.358;4.926;2023-09-08T06:17:11;23.73;;;16.13;;
37349;SDS011;23231;52.358;4.926;2023-09-08T06:22:15;18.92;;;14.90;;
37349;SDS011;23231;52.358;4.926;2023-09-08T06:27:15;22.38;;;16.13;;
37349;SDS011;23231;52.358;4.926;2023-09-08T06:32:16;23.10;;;14.88;;
37349;SDS011;23231;52.358;4.926;2023-09-08T06:37:16;23.67;;;16.55;;
37349;SDS011;23231;52.358;4.926;2023-09-08T06:42:16;22.55;;;15.57;;
37349;SDS011;23231;52.358;4.926;2023-09-08T06:47:17;24.20;;;15.82;;
37349;SDS011;23231;52.358;4.926;2023-09-08T06:52:17;25.30;;;16.23;;
37349;SDS011;23231;52.358;4.926;2023-09-08T06:57:18;22.05;;;15.93;;
37349;SDS011;23231;52.358;4.926;2023-09-08T07:02:21;23.55;;;16.95;;
37349;SDS011;23231;52.358;4.926;2023-09-08T07:07:22;21.50;;;15.75;;
37349;SDS011;23231;52.358;4.926;2023-09-08T07:12:23;20.30;;;16.15;;
37349;SDS011;23231;52.358;4.926;2023-09-08T07:17:23;20.20;;;15.95;;
37349;SDS011;23231;52.358;4.926;2023-09-08T07:22:23;23.20;;;17.50;;
37349;SDS011;23231;52.358;4.926;2023-09-08T07:27:24;15.95;;;12.68;;
37349;SDS011;23231;52.358;4.926;2023-09-08T07:32:24;18.98;;;14.40;;
37349;SDS011;23231;52.358;4.926;2023-09-08T07:37:25;21.42;;;15.43;;
37349;SDS011;23231;52.358;4.926;2023-09-08T07:42:25;20.55;;;16.25;;
37349;SDS011;23231;52.358;4.926;2023-09-08T07:47:27;22.25;;;17.25;;
37349;SDS011;23231;52.358;4.926;2023-09-08T07:52:27;22.30;;;14.65;;
37349;SDS011;23231;52.358;4.926;2023-09-08T07:57:28;20.40;;;15.63;;
37349;SDS011;23231;52.358;4.926;2023-09-08T08:02:29;19.17;;;15.18;;
37349;SDS011;23231;52.358;4.926;2023-09-08T08:07:31;21.20;;;16.35;;
37349;SDS011;23231;52.358;4.926;2023-09-08T08:12:31;20.90;;;17.20;;
37349;SDS011;23231;52.358;4.926;2023-09-08T08:17:32;24.02;;;16.25;;
37349;SDS011;23231;52.358;4.926;2023-09-08T08:22:33;19.33;;;14.68;;
37349;SDS011;23231;52.358;4.926;2023-09-08T08:27:33;21.70;;;15.45;;
37349;SDS011;23231;52.358;4.926;2023-09-08T08:32:34;20.92;;;16.48;;
37349;SDS011;23231;52.358;4.926;2023-09-08T08:37:34;19.48;;;14.98;;
37349;SDS011;23231;52.358;4.926;2023-09-08T08:42:35;22.75;;;16.95;;
37349;SDS011;23231;52.358;4.926;2023-09-08T08:47:35;21.52;;;15.55;;
37349;SDS011;23231;52.358;4.926;2023-09-08T08:52:36;25.05;;;16.65;;
37349;SDS011;23231;52.358;4.926;2023-09-08T08:57:38;24.55;;;16.75;;
37349;SDS011;23231;52.358;4.926;2023-09-08T09:02:39;25.27;;;17.40;;
37349;SDS011;23231;52.358;4.926;2023-09-08T09:07:43;21.65;;;16.70;;
37349;SDS011;23231;52.358;4.926;2023-09-08T09:12:44;26.40;;;18.70;;
37349;SDS011;23231;52.358;4.926;2023-09-08T09:17:44;23.45;;;16.80;;
37349;SDS011;23231;52.358;4.926;2023-09-08T09:23:03;21.05;;;16.58;;
37349;SDS011;23231;52.358;4.926;2023-09-08T09:28:04;18.58;;;14.73;;
37349;SDS011;23231;52.358;4.926;2023-09-08T09:33:04;20.50;;;14.68;;
37349;SDS011;23231;52.358;4.926;2023-09-08T09:38:05;24.30;;;15.68;;
37349;SDS011;23231;52.358;4.926;2023-09-08T09:43:06;17.80;;;13.48;;
37349;SDS011;23231;52.358;4.926;2023-09-08T09:48:08;16.80;;;13.32;;
37349;SDS011;23231;52.358;4.926;2023-09-08T09:53:13;16.50;;;11.63;;
37349;SDS011;23231;52.358;4.926;2023-09-08T09:58:14;17.92;;;13.30;;
37349;SDS011;23231;52.358;4.926;2023-09-08T10:03:16;22.52;;;15.57;;
37349;SDS011;23231;52.358;4.926;2023-09-08T10:08:17;18.15;;;13.98;;
37349;SDS011;23231;52.358;4.926;2023-09-08T10:13:18;19.27;;;15.18;;
37349;SDS011;23231;52.358;4.926;2023-09-08T10:18:28;19.13;;;12.70;;
37349;SDS011;23231;52.358;4.926;2023-09-08T10:23:40;17.08;;;13.98;;
37349;SDS011;23231;52.358;4.926;2023-09-08T10:28:42;18.23;;;13.65;;
37349;SDS011;23231;52.358;4.926;2023-09-08T10:33:44;17.35;;;11.32;;
37349;SDS011;23231;52.358;4.926;2023-09-08T10:38:45;19.77;;;14.18;;
37349;SDS011;23231;52.358;4.926;2023-09-08T10:43:57;19.63;;;13.77;;
37349;SDS011;23231;52.358;4.926;2023-09-08T10:49:02;18.58;;;13.85;;
37349;SDS011;23231;52.358;4.926;2023-09-08T10:54:06;18.65;;;15.43;;
37349;SDS011;23231;52.358;4.926;2023-09-08T10:59:07;19.27;;;14.13;;
37349;SDS011;23231;52.358;4.926;2023-09-08T11:04:07;18.33;;;14.50;;
37349;SDS011;23231;52.358;4.926;2023-09-08T11:09:10;19.83;;;14.00;;
37349;SDS011;23231;52.358;4.926;2023-09-08T11:14:11;16.10;;;11.18;;
37349;SDS011;23231;52.358;4.926;2023-09-08T11:19:11;15.65;;;13.52;;
37349;SDS011;23231;52.358;4.926;2023-09-08T11:24:12;12.27;;;10.02;;
37349;SDS011;23231;52.358;4.926;2023-09-08T11:29:15;13.15;;;11.55;;
37349;SDS011;23231;52.358;4.926;2023-09-08T11:34:16;13.82;;;8.27;;
37349;SDS011;23231;52.358;4.926;2023-09-08T11:39:16;14.07;;;11.05;;
37349;SDS011;23231;52.358;4.926;2023-09-08T11:44:17;14.95;;;11.88;;
37349;SDS011;23231;52.358;4.926;2023-09-08T11:49:19;11.68;;;8.20;;
37349;SDS011;23231;52.358;4.926;2023-09-08T11:54:20;12.30;;;9.70;;
37349;SDS011;23231;52.358;4.926;2023-09-08T11:59:21;8.40;;;6.68;;
37349;SDS011;23231;52.358;4.926;2023-09-08T12:04:21;9.60;;;6.90;;
37349;SDS011;23231;52.358;4.926;2023-09-08T12:09:22;7.57;;;6.70;;
37349;SDS011;23231;52.358;4.926;2023-09-08T12:14:22;12.30;;;9.75;;
37349;SDS011;23231;52.358;4.926;2023-09-08T12:19:29;9.32;;;8.27;;
37349;SDS011;23231;52.358;4.926;2023-09-08T12:30:15;9.68;;;6.30;;
37349;SDS011;23231;52.358;4.926;2023-09-08T12:35:20;9.55;;;7.03;;
37349;SDS011;23231;52.358;4.926;2023-09-08T12:40:24;12.45;;;9.10;;
37349;SDS011;23231;52.358;4.926;2023-09-08T12:45:25;7.53;;;6.18;;
37349;SDS011;23231;52.358;4.926;2023-09-08T12:50:26;7.80;;;6.50;;
37349;SDS011;23231;52.358;4.926;2023-09-08T12:55:26;8.68;;;6.10;;
37349;SDS011;23231;52.358;4.926;2023-09-08T13:00:27;8.55;;;6.00;;
37349;SDS011;23231;52.358;4.926;2023-09-08T13:05:28;8.52;;;5.70;;
37349;SDS011;23231;52.358;4.926;2023-09-08T13:10:28;9.20;;;6.10;;
37349;SDS011;23231;52.358;4.926;2023-09-08T13:15:28;10.80;;;6.53;;
37349;SDS011;23231;52.358;4.926;2023-09-08T13:20:29;8.45;;;6.32;;
37349;SDS011;23231;52.358;4.926;2023-09-08T13:25:29;8.95;;;7.40;;
37349;SDS011;23231;52.358;4.926;2023-09-08T13:30:30;8.40;;;5.93;;
37349;SDS011;23231;52.358;4.926;2023-09-08T13:35:30;8.68;;;6.50;;
37349;SDS011;23231;52.358;4.926;2023-09-08T13:40:30;8.10;;;5.03;;
37349;SDS011;23231;52.358;4.926;2023-09-08T13:45:31;7.75;;;5.45;;
37349;SDS011;23231;52.358;4.926;2023-09-08T13:50:31;7.78;;;5.68;;
37349;SDS011;23231;52.358;4.926;2023-09-08T13:55:32;9.23;;;6.05;;
37349;SDS011;23231;52.358;4.926;2023-09-08T14:00:32;6.30;;;5.27;;
37349;SDS011;23231;52.358;4.926;2023-09-08T14:05:33;9.37;;;5.50;;
37349;SDS011;23231;52.358;4.926;2023-09-08T14:10:33;8.55;;;6.28;;
37349;SDS011;23231;52.358;4.926;2023-09-08T14:15:33;7.10;;;6.07;;
37349;SDS011;23231;52.358;4.926;2023-09-08T14:20:34;11.70;;;7.87;;
37349;SDS011;23231;52.358;4.926;2023-09-08T14:25:34;9.57;;;6.97;;
37349;SDS011;23231;52.358;4.926;2023-09-08T14:30:35;6.50;;;5.40;;
37349;SDS011;23231;52.358;4.926;2023-09-08T14:35:35;8.70;;;5.75;;
37349;SDS011;23231;52.358;4.926;2023-09-08T14:40:36;8.20;;;5.60;;
37349;SDS011;23231;52.358;4.926;2023-09-08T14:45:36;8.40;;;5.33;;
37349;SDS011;23231;52.358;4.926;2023-09-08T14:50:37;8.23;;;5.87;;
37349;SDS011;23231;52.358;4.926;2023-09-08T14:55:37;7.22;;;5.30;;
37349;SDS011;23231;52.358;4.926;2023-09-08T15:00:38;7.57;;;6.35;;
37349;SDS011;23231;52.358;4.926;2023-09-08T15:05:39;8.05;;;5.30;;
37349;SDS011;23231;52.358;4.926;2023-09-08T15:10:40;7.57;;;5.43;;
37349;SDS011;23231;52.358;4.926;2023-09-08T15:15:41;9.13;;;6.28;;
37349;SDS011;23231;52.358;4.926;2023-09-08T15:20:41;8.30;;;6.27;;
37349;SDS011;23231;52.358;4.926;2023-09-08T15:25:41;10.30;;;7.35;;
37349;SDS011;23231;52.358;4.926;2023-09-08T15:30:46;10.67;;;6.77;;
37349;SDS011;23231;52.358;4.926;2023-09-08T15:35:47;8.40;;;6.25;;
37349;SDS011;23231;52.358;4.926;2023-09-08T15:46:07;9.55;;;5.53;;
37349;SDS011;23231;52.358;4.926;2023-09-08T15:51:08;8.85;;;6.20;;
37349;SDS011;23231;52.358;4.926;2023-09-08T15:56:12;8.27;;;5.88;;
37349;SDS011;23231;52.358;4.926;2023-09-08T16:01:13;10.23;;;6.70;;
37349;SDS011;23231;52.358;4.926;2023-09-08T16:06:13;8.85;;;7.10;;
37349;SDS011;23231;52.358;4.926;2023-09-08T16:11:14;8.40;;;6.05;;
37349;SDS011;23231;52.358;4.926;2023-09-08T16:16:14;9.77;;;6.47;;
37349;SDS011;23231;52.358;4.926;2023-09-08T16:21:16;7.10;;;5.88;;
37349;SDS011;23231;52.358;4.926;2023-09-08T16:26:16;6.30;;;4.93;;
37349;SDS011;23231;52.358;4.926;2023-09-08T16:31:17;10.80;;;5.88;;
37349;SDS011;23231;52.358;4.926;2023-09-08T16:36:17;8.43;;;5.65;;
37349;SDS011;23231;52.358;4.926;2023-09-08T16:41:17;8.18;;;5.70;;
37349;SDS011;23231;52.358;4.926;2023-09-08T16:46:18;7.22;;;5.70;;
37349;SDS011;23231;52.358;4.926;2023-09-08T16:51:19;6.93;;;5.35;;
37349;SDS011;23231;52.358;4.926;2023-09-08T16:56:19;8.80;;;5.70;;
37349;SDS011;23231;52.358;4.926;2023-09-08T17:01:19;8.33;;;5.87;;
37349;SDS011;23231;52.358;4.926;2023-09-08T17:06:20;8.57;;;6.13;;
37349;SDS011;23231;52.358;4.926;2023-09-08T17:11:20;9.07;;;5.53;;
37349;SDS011;23231;52.358;4.926;2023-09-08T17:16:21;9.63;;;5.75;;
37349;SDS011;23231;52.358;4.926;2023-09-08T17:21:21;8.20;;;6.18;;
37349;SDS011;23231;52.358;4.926;2023-09-08T17:26:22;9.02;;;6.38;;
37349;SDS011;23231;52.358;4.926;2023-09-08T17:31:22;8.80;;;6.95;;
37349;SDS011;23231;52.358;4.926;2023-09-08T17:36:22;10.02;;;6.93;;
37349;SDS011;23231;52.358;4.926;2023-09-08T17:41:23;10.20;;;7.00;;
37349;SDS011;23231;52.358;4.926;2023-09-08T17:46:23;9.88;;;7.70;;
37349;SDS011;23231;52.358;4.926;2023-09-08T17:51:24;12.02;;;7.70;;
37349;SDS011;23231;52.358;4.926;2023-09-08T17:56:24;10.43;;;7.38;;
37349;SDS011;23231;52.358;4.926;2023-09-08T18:01:25;10.27;;;7.57;;
37349;SDS011;23231;52.358;4.926;2023-09-08T18:06:25;10.27;;;7.47;;
37349;SDS011;23231;52.358;4.926;2023-09-08T18:11:26;13.07;;;8.88;;
37349;SDS011;23231;52.358;4.926;2023-09-08T18:16:26;19.67;;;11.90;;
37349;SDS011;23231;52.358;4.926;2023-09-08T18:21:26;15.73;;;10.93;;
37349;SDS011;23231;52.358;4.926;2023-09-08T18:26:27;13.57;;;9.60;;
37349;SDS011;23231;52.358;4.926;2023-09-08T18:31:28;14.23;;;9.07;;
37349;SDS011;23231;52.358;4.926;2023-09-08T18:36:30;12.55;;;9.10;;
37349;SDS011;23231;52.358;4.926;2023-09-08T18:41:31;15.02;;;11.07;;
37349;SDS011;23231;52.358;4.926;2023-09-08T18:46:31;14.95;;;11.05;;
37349;SDS011;23231;52.358;4.926;2023-09-08T18:51:32;16.20;;;11.23;;
37349;SDS011;23231;52.358;4.926;2023-09-08T18:56:33;15.27;;;11.50;;
37349;SDS011;23231;52.358;4.926;2023-09-08T19:01:33;15.85;;;12.10;;
37349;SDS011;23231;52.358;4.926;2023-09-08T19:06:34;16.52;;;11.05;;
37349;SDS011;23231;52.358;4.926;2023-09-08T19:11:35;16.45;;;12.13;;
37349;SDS011;23231;52.358;4.926;2023-09-08T19:16:36;15.25;;;10.90;;
37349;SDS011;23231;52.358;4.926;2023-09-08T19:21:36;14.75;;;11.15;;
37349;SDS011;23231;52.358;4.926;2023-09-08T19:26:36;14.98;;;11.52;;
37349;SDS011;23231;52.358;4.926;2023-09-08T19:31:37;15.93;;;11.23;;
37349;SDS011;23231;52.358;4.926;2023-09-08T19:36:41;13.95;;;10.40;;
37349;SDS011;23231;52.358;4.926;2023-09-08T19:41:41;14.50;;;11.85;;
37349;SDS011;23231;52.358;4.926;2023-09-08T19:46:42;14.90;;;12.40;;
37349;SDS011;23231;52.358;4.926;2023-09-08T19:51:42;16.52;;;12.15;;
37349;SDS011;23231;52.358;4.926;2023-09-08T19:56:43;19.02;;;13.90;;
37349;SDS011;23231;52.358;4.926;2023-09-08T20:01:44;16.67;;;13.07;;
37349;SDS011;23231;52.358;4.926;2023-09-08T20:06:46;17.70;;;14.45;;
37349;SDS011;23231;52.358;4.926;2023-09-08T20:11:47;16.65;;;12.73;;
37349;SDS011;23231;52.358;4.926;2023-09-08T20:16:47;22.77;;;15.95;;
37349;SDS011;23231;52.358;4.926;2023-09-08T20:21:48;16.98;;;13.57;;
37349;SDS011;23231;52.358;4.926;2023-09-08T20:26:48;21.10;;;14.13;;
37349;SDS011;23231;52.358;4.926;2023-09-08T20:31:48;21.67;;;15.00;;
37349;SDS011;23231;52.358;4.926;2023-09-08T20:36:49;20.00;;;15.25;;
37349;SDS011;23231;52.358;4.926;2023-09-08T20:41:50;19.63;;;14.32;;
37349;SDS011;23231;52.358;4.926;2023-09-08T20:46:50;18.83;;;13.75;;
37349;SDS011;23231;52.358;4.926;2023-09-08T20:51:51;19.77;;;15.23;;
37349;SDS011;23231;52.358;4.926;2023-09-08T20:56:51;19.13;;;14.95;;
37349;SDS011;23231;52.358;4.926;2023-09-08T21:01:53;21.13;;;14.73;;
37349;SDS011;23231;52.358;4.926;2023-09-08T21:06:53;23.85;;;17.63;;
37349;SDS011;23231;52.358;4.926;2023-09-08T21:11:54;22.35;;;17.65;;
37349;SDS011;23231;52.358;4.926;2023-09-08T21:16:54;28.15;;;21.27;;
37349;SDS011;23231;52.358;4.926;2023-09-08T21:21:55;26.27;;;21.30;;
37349;SDS011;23231;52.358;4.926;2023-09-08T21:26:55;29.65;;;22.77;;
37349;SDS011;23231;52.358;4.926;2023-09-08T21:31:55;30.13;;;23.48;;
37349;SDS011;23231;52.358;4.926;2023-09-08T21:36:56;31.67;;;25.73;;
37349;SDS011;23231;52.358;4.926;2023-09-08T21:41:56;32.10;;;25.73;;
37349;SDS011;23231;52.358;4.926;2023-09-08T21:46:59;39.03;;;30.00;;
37349;SDS011;23231;52.358;4.926;2023-09-08T21:52:00;30.75;;;25.50;;
37349;SDS011;23231;52.358;4.926;2023-09-08T21:57:00;31.65;;;25.13;;
37349;SDS011;23231;52.358;4.926;2023-09-08T22:02:00;41.03;;;30.80;;
37349;SDS011;23231;52.358;4.926;2023-09-08T22:07:01;49.58;;;35.38;;
37349;SDS011;23231;52.358;4.926;2023-09-08T22:12:02;46.45;;;33.20;;
37349;SDS011;23231;52.358;4.926;2023-09-08T22:17:03;53.85;;;37.97;;
37349;SDS011;23231;52.358;4.926;2023-09-08T22:22:04;64.47;;;41.80;;
37349;SDS011;23231;52.358;4.926;2023-09-08T22:27:05;66.57;;;43.03;;
37349;SDS011;23231;52.358;4.926;2023-09-08T22:32:06;65.20;;;44.90;;
37349;SDS011;23231;52.358;4.926;2023-09-08T22:37:06;67.05;;;45.08;;
37349;SDS011;23231;52.358;4.926;2023-09-08T22:42:07;56.55;;;39.30;;
37349;SDS011;23231;52.358;4.926;2023-09-08T22:47:07;64.18;;;45.13;;
37349;SDS011;23231;52.358;4.926;2023-09-08T22:52:10;63.92;;;44.45;;
37349;SDS011;23231;52.358;4.926;2023-09-08T22:57:10;67.80;;;46.85;;
37349;SDS011;23231;52.358;4.926;2023-09-08T23:02:12;59.10;;;41.55;;
37349;SDS011;23231;52.358;4.926;2023-09-08T23:07:13;73.85;;;48.13;;
37349;SDS011;23231;52.358;4.926;2023-09-08T23:12:13;67.63;;;46.35;;
37349;SDS011;23231;52.358;4.926;2023-09-08T23:17:14;63.88;;;43.63;;
37349;SDS011;23231;52.358;4.926;2023-09-08T23:22:14;63.72;;;44.03;;
37349;SDS011;23231;52.358;4.926;2023-09-08T23:27:15;62.78;;;41.83;;
37349;SDS011;23231;52.358;4.926;2023-09-08T23:32:17;61.28;;;41.42;;
37349;SDS011;23231;52.358;4.926;2023-09-08T23:37:17;63.40;;;42.88;;
37349;SDS011;23231;52.358;4.926;2023-09-08T23:42:18;65.30;;;45.80;;
37349;SDS011;23231;52.358;4.926;2023-09-08T23:47:19;60.85;;;43.30;;
37349;SDS011;23231;52.358;4.926;2023-09-08T23:57:30;58.45;;;42.58;;
